Barr, South Carolina
Current Conditions -  °F | °C
As of 12:56 AM on Sunday 21 Dec 2014 (Local Time) from KCAE Reporting Station
Overcast Overcast  
Wind Chill: 46°   Ceiling: 2300
Heat Index: 46°   Visibility: 10mi
Dew Point: 39°   Wind: 3mph
Humidity: 76%   Direction: 60°ENE
Pressure: 30.23"   Gusts: NA
Location:  33.9903°N, 81.2681°W
Report Text: KCAE 210556Z 06003KT 10SM OVC023 08/04 A3023 RMK AO2 SLP238 T00780039 10094 20078 56004
Loading
Personal Weather Stations






























Interactive Weather Map New forecast layout! Learn more

10-Day Weather Forecast

Advertisements
Track Severe Weather on mobile